< < Back
Terminal Aerodrome Forecast


Current Version              Previous Versions:   1  2  3  4  5  6  7  8  9  

Terminal Aerodrome Forecast

507
FTUS42 KGSP 052339
TAFAVL
TAF
KAVL 052339Z 0600/0624 19005KT P6SM VCSH SCT020 BKN045 OVC090
     FM060600 00000KT P6SM BKN040
     FM060800 31003KT 4SM BR BKN040
     FM061000 32003KT 2SM BR BKN040
     FM061200 32003KT P6SM BKN045
     FM061600 31004KT P6SM VCSH BKN050=

Latest METAR

646
SAUS70 KWBC 052300 RRD
MTRAVL
METAR KAVL 052254Z 17007KT 10SM SCT021 BKN060 BKN075 23/18 A3009 RMK AO2
SLP166 T02280178


USA.gov is the U.S. government's official web portal to all federal, state and local government web resources and services.